createdAt,value
2023-05-01T00:01:34.955Z,9.20
2023-05-01T00:03:40.292Z,9.20
2023-05-01T00:05:46.117Z,9.30
2023-05-01T00:07:51.111Z,9.30
2023-05-01T00:09:56.645Z,9.40
2023-05-01T00:12:05.792Z,9.10
2023-05-01T00:14:12.054Z,8.90
2023-05-01T00:16:17.880Z,9.20
2023-05-01T00:18:22.997Z,9.40
2023-05-01T00:20:31.332Z,9.50
2023-05-01T00:22:37.918Z,9.20
2023-05-01T00:24:43.422Z,9.30
2023-05-01T00:26:48.504Z,9.50
2023-05-01T00:28:56.494Z,9.60
2023-05-01T00:31:01.571Z,9.60
2023-05-01T00:33:07.063Z,9.60
2023-05-01T00:35:19.022Z,9.70
2023-05-01T00:37:25.327Z,9.20
2023-05-01T00:39:31.051Z,9.20
2023-05-01T00:41:38.226Z,9.00
2023-05-01T00:43:43.230Z,8.90
2023-05-01T00:45:52.193Z,9.20
2023-05-01T00:47:57.306Z,9.20
2023-05-01T00:50:03.755Z,9.20
2023-05-01T00:52:10.032Z,9.10
2023-05-01T00:54:18.402Z,9.10
2023-05-01T00:56:23.547Z,9.00
2023-05-01T00:58:28.600Z,9.20
2023-05-01T01:00:36.318Z,9.30
2023-05-01T01:02:54.084Z,9.40
2023-05-01T01:05:01.498Z,9.30
2023-05-01T01:07:14.885Z,9.40
2023-05-01T01:09:38.070Z,9.40
2023-05-01T01:11:59.643Z,9.30
2023-05-01T01:14:16.697Z,9.40
2023-05-01T01:16:31.246Z,9.40
2023-05-01T01:18:48.704Z,9.30
2023-05-01T01:21:00.587Z,9.40
2023-05-01T01:23:40.012Z,9.30
2023-05-01T01:26:12.100Z,9.30
2023-05-01T01:29:00.588Z,8.90
2023-05-01T01:31:17.652Z,9.00
2023-05-01T01:33:54.659Z,8.90
2023-05-01T01:36:05.548Z,8.90
2023-05-01T01:38:22.754Z,8.50
2023-05-01T01:40:38.879Z,8.60
2023-05-01T01:43:01.750Z,8.80
2023-05-01T01:45:14.309Z,8.80
2023-05-01T01:47:21.028Z,8.80
2023-05-01T01:49:31.345Z,8.80
2023-05-01T01:51:39.719Z,8.60
2023-05-01T01:53:48.757Z,8.70
2023-05-01T01:55:54.951Z,8.50
2023-05-01T01:58:02.534Z,8.60
2023-05-01T02:00:11.299Z,8.60
2023-05-01T02:02:32.330Z,8.20
2023-05-01T02:04:42.245Z,8.40
2023-05-01T02:06:51.862Z,8.40
2023-05-01T02:09:03.324Z,8.20
2023-05-01T02:11:09.229Z,8.50
2023-05-01T02:13:18.651Z,8.60
2023-05-01T02:15:25.496Z,8.30
2023-05-01T02:17:32.397Z,8.50
2023-05-01T02:19:44.629Z,8.50
2023-05-01T02:21:51.534Z,8.60
2023-05-01T02:24:03.188Z,8.60
2023-05-01T02:26:12.799Z,8.40
2023-05-01T02:28:24.008Z,7.90
2023-05-01T02:30:29.588Z,8.10
2023-05-01T02:32:35.142Z,8.10
2023-05-01T02:34:42.769Z,8.10
2023-05-01T02:36:48.411Z,8.10
2023-05-01T02:38:53.811Z,8.20
2023-05-01T02:41:01.247Z,8.20
2023-05-01T02:43:12.391Z,8.10
2023-05-01T02:45:27.067Z,8.00
2023-05-01T02:47:36.267Z,7.80
2023-05-01T02:49:44.999Z,7.80
2023-05-01T02:51:58.048Z,7.80
2023-05-01T02:54:03.956Z,7.50
2023-05-01T02:56:11.016Z,7.90
2023-05-01T02:58:20.445Z,7.90
2023-05-01T03:00:25.845Z,7.70
2023-05-01T03:02:32.586Z,7.90
2023-05-01T03:04:38.823Z,8.00
2023-05-01T03:06:47.415Z,7.70
2023-05-01T03:08:52.556Z,7.80
2023-05-01T03:10:59.973Z,7.70
2023-05-01T03:13:06.331Z,7.80
2023-05-01T03:15:13.456Z,7.70
2023-05-01T03:17:22.873Z,7.70
2023-05-01T03:19:29.411Z,7.70
2023-05-01T03:21:39.707Z,7.60
2023-05-01T03:23:49.402Z,7.70
2023-05-01T03:25:55.688Z,7.70
2023-05-01T03:28:04.240Z,7.80
2023-05-01T03:30:12.050Z,7.50
2023-05-01T03:32:21.750Z,7.40
2023-05-01T03:34:29.973Z,7.50
2023-05-01T03:36:35.704Z,7.50
2023-05-01T03:38:42.592Z,7.50
2023-05-01T03:40:52.334Z,7.40
2023-05-01T03:43:16.990Z,7.50
2023-05-01T03:45:22.730Z,7.60
2023-05-01T03:47:28.124Z,7.60
2023-05-01T03:49:34.208Z,7.30
2023-05-01T03:51:40.066Z,7.40
2023-05-01T03:53:45.205Z,7.50
2023-05-01T03:55:54.026Z,7.60
2023-05-01T03:57:59.236Z,7.20
2023-05-01T04:00:05.666Z,7.20
2023-05-01T04:02:21.005Z,7.40
2023-05-01T04:04:26.929Z,7.50
2023-05-01T04:06:35.420Z,7.50
2023-05-01T04:08:42.490Z,7.50
2023-05-01T04:10:47.788Z,7.40
2023-05-01T04:12:56.770Z,7.50
2023-05-01T04:15:02.119Z,7.30
2023-05-01T04:17:07.371Z,7.40
2023-05-01T04:19:19.828Z,7.20
2023-05-01T04:21:37.967Z,7.30
2023-05-01T04:23:43.037Z,7.40
2023-05-01T04:25:48.881Z,7.40
2023-05-01T04:27:59.915Z,7.50
2023-05-01T04:30:04.966Z,6.90
2023-05-01T04:32:11.033Z,6.90
2023-05-01T04:34:19.745Z,7.30
2023-05-01T04:36:25.349Z,7.40
2023-05-01T04:38:31.219Z,7.50
2023-05-01T04:40:39.135Z,7.00
2023-05-01T04:42:50.176Z,7.10
2023-05-01T04:44:58.163Z,7.10
2023-05-01T04:47:04.777Z,7.00
2023-05-01T04:49:12.405Z,7.30
2023-05-01T04:51:20.054Z,7.30
2023-05-01T04:53:25.369Z,7.30
2023-05-01T04:55:31.095Z,7.40
2023-05-01T04:57:43.679Z,7.20
2023-05-01T04:59:50.966Z,6.70
2023-05-01T05:01:59.660Z,7.10
2023-05-01T05:04:04.939Z,6.40
2023-05-01T05:06:13.133Z,6.90
2023-05-01T05:08:20.968Z,7.30
2023-05-01T05:10:34.256Z,7.20
2023-05-01T05:13:10.211Z,6.90
2023-05-01T05:15:17.111Z,7.40
2023-05-01T05:17:24.955Z,7.60
2023-05-01T05:19:33.643Z,7.60
2023-05-01T05:21:42.203Z,7.60
2023-05-01T05:23:48.259Z,7.70
2023-05-01T05:25:54.464Z,7.60
2023-05-01T05:27:59.864Z,7.40
2023-05-01T05:30:05.633Z,7.60
2023-05-01T05:32:13.429Z,7.60
2023-05-01T05:34:24.776Z,7.60
2023-05-01T05:36:30.472Z,7.80
2023-05-01T05:38:36.766Z,7.90
2023-05-01T05:40:44.303Z,7.70
2023-05-01T05:42:52.999Z,7.60
2023-05-01T05:44:58.582Z,7.50
2023-05-01T05:47:03.761Z,7.50
2023-05-01T05:49:13.422Z,7.60
2023-05-01T05:51:22.212Z,7.80
2023-05-01T05:53:31.675Z,7.80
2023-05-01T05:55:38.787Z,8.00
2023-05-01T05:57:44.826Z,8.00
2023-05-01T05:59:50.180Z,8.10
2023-05-01T06:02:00.563Z,8.10
2023-05-01T06:04:08.110Z,8.00
2023-05-01T06:06:17.601Z,8.20
2023-05-01T06:08:28.023Z,8.00
2023-05-01T06:10:34.672Z,8.20
2023-05-01T06:12:45.868Z,8.30
2023-05-01T06:14:57.583Z,8.20
2023-05-01T06:17:02.675Z,8.20
2023-05-01T06:19:08.014Z,8.00
2023-05-01T06:21:13.554Z,8.30
2023-05-01T06:23:22.832Z,8.30
2023-05-01T06:26:08.695Z,8.30
2023-05-01T06:28:14.146Z,8.20
2023-05-01T06:30:19.933Z,8.40
2023-05-01T06:32:24.960Z,8.30
2023-05-01T06:34:31.021Z,8.20
2023-05-01T06:36:44.102Z,8.40
2023-05-01T06:38:49.823Z,8.60
2023-05-01T06:40:59.573Z,8.80
2023-05-01T06:43:10.359Z,8.80
2023-05-01T06:45:15.906Z,8.80
2023-05-01T06:47:23.220Z,8.80
2023-05-01T06:49:28.235Z,8.70
2023-05-01T06:51:35.074Z,8.80
2023-05-01T06:53:42.069Z,8.90
2023-05-01T06:55:47.132Z,9.00
2023-05-01T06:57:52.158Z,9.10
2023-05-01T06:59:59.920Z,9.10
2023-05-01T07:02:05.135Z,9.20
2023-05-01T07:04:13.690Z,9.20
2023-05-01T07:06:18.765Z,9.50
2023-05-01T07:08:24.430Z,9.30
2023-05-01T07:10:30.528Z,9.40
2023-05-01T07:12:37.176Z,9.40
2023-05-01T07:14:42.504Z,9.60
2023-05-01T07:16:51.538Z,9.70
2023-05-01T07:18:58.676Z,9.70
2023-05-01T07:21:03.732Z,9.50
2023-05-01T07:23:09.898Z,9.80
2023-05-01T07:25:18.426Z,9.70
2023-05-01T07:27:25.285Z,9.70
2023-05-01T07:29:30.487Z,9.80
2023-05-01T07:31:39.428Z,9.70
2023-05-01T07:33:47.726Z,9.80
2023-05-01T07:35:52.984Z,9.80
2023-05-01T07:37:58.094Z,9.80
2023-05-01T07:40:04.012Z,10.00
2023-05-01T07:42:09.352Z,10.20
2023-05-01T07:44:17.278Z,10.10
2023-05-01T07:46:22.414Z,10.10
2023-05-01T07:48:30.632Z,10.20
2023-05-01T07:50:39.263Z,10.50
2023-05-01T07:52:58.826Z,10.60
2023-05-01T07:55:04.108Z,10.60
2023-05-01T07:57:10.999Z,10.60
2023-05-01T07:59:16.040Z,10.60
2023-05-01T08:01:23.636Z,10.60
2023-05-01T08:03:32.988Z,10.90
2023-05-01T08:05:44.352Z,11.00
2023-05-01T08:07:49.687Z,11.20
2023-05-01T08:09:57.053Z,11.20
2023-05-01T08:12:04.156Z,11.20
2023-05-01T08:14:09.469Z,11.30
2023-05-01T08:16:15.532Z,11.30
2023-05-01T08:18:24.144Z,11.50
2023-05-01T08:20:32.473Z,11.60
2023-05-01T08:22:44.962Z,11.80
2023-05-01T08:24:49.968Z,11.90
2023-05-01T08:26:58.389Z,11.90
2023-05-01T08:29:03.434Z,11.80
2023-05-01T08:31:10.064Z,11.80
2023-05-01T08:33:19.120Z,11.90
2023-05-01T08:35:24.434Z,12.10
2023-05-01T08:37:29.507Z,12.20
2023-05-01T08:39:37.233Z,12.10
2023-05-01T08:41:44.317Z,12.20
2023-05-01T08:43:49.776Z,12.30
2023-05-01T08:46:00.581Z,12.40
2023-05-01T08:48:08.766Z,12.50
2023-05-01T08:50:16.641Z,12.50
2023-05-01T08:52:25.128Z,12.60
2023-05-01T08:54:54.748Z,12.70
2023-05-01T08:57:08.973Z,12.80
2023-05-01T08:59:17.973Z,12.80
2023-05-01T09:01:24.993Z,13.10
2023-05-01T09:03:31.707Z,13.10
2023-05-01T09:05:37.052Z,13.20
2023-05-01T09:07:43.667Z,13.40
2023-05-01T09:09:57.299Z,13.40
2023-05-01T09:12:11.625Z,13.30
2023-05-01T09:14:17.808Z,13.50
2023-05-01T09:16:24.942Z,13.50
2023-05-01T09:18:31.488Z,13.70
2023-05-01T09:20:39.368Z,13.90
2023-05-01T09:22:52.706Z,14.00
2023-05-01T09:25:00.340Z,13.90
2023-05-01T09:27:05.715Z,14.10
2023-05-01T09:29:11.878Z,14.10
2023-05-01T09:31:29.077Z,14.20
2023-05-01T09:33:34.485Z,14.40
2023-05-01T09:35:54.286Z,14.60
2023-05-01T09:37:59.417Z,14.50
2023-05-01T09:40:17.288Z,14.50
2023-05-01T09:42:27.480Z,14.70
2023-05-01T09:44:35.700Z,14.80
2023-05-01T09:46:47.702Z,14.60
2023-05-01T09:48:59.145Z,14.80
2023-05-01T09:51:04.521Z,14.90
2023-05-01T09:53:13.377Z,14.90
2023-05-01T09:55:25.449Z,14.90
2023-05-01T09:57:43.148Z,15.10
2023-05-01T10:00:08.700Z,15.20
2023-05-01T10:02:34.148Z,15.20
2023-05-01T10:04:41.851Z,15.30
2023-05-01T10:06:49.560Z,15.40
2023-05-01T10:08:54.628Z,15.40
2023-05-01T10:11:08.381Z,15.30
2023-05-01T10:13:21.342Z,15.40
2023-05-01T10:15:28.794Z,15.40
2023-05-01T10:17:34.215Z,15.40
2023-05-01T10:19:39.265Z,15.50
2023-05-01T10:21:47.107Z,15.80
2023-05-01T10:23:52.294Z,15.80
2023-05-01T10:25:59.151Z,15.70
2023-05-01T10:28:09.252Z,15.70
2023-05-01T10:30:14.849Z,15.90
2023-05-01T10:32:19.931Z,16.00
2023-05-01T10:34:27.815Z,16.30
2023-05-01T10:36:37.446Z,16.40
2023-05-01T10:38:48.338Z,16.40
2023-05-01T10:40:53.948Z,16.40
2023-05-01T10:43:21.535Z,16.50
2023-05-01T10:45:35.923Z,16.50
2023-05-01T10:47:50.251Z,16.60
2023-05-01T10:50:14.127Z,16.60
2023-05-01T10:52:19.672Z,16.50
2023-05-01T10:54:27.047Z,16.60
2023-05-01T10:56:45.808Z,16.60
2023-05-01T10:59:13.368Z,16.60
2023-05-01T11:01:36.064Z,16.70
2023-05-01T11:03:41.220Z,16.70
2023-05-01T11:06:10.636Z,16.90
2023-05-01T11:08:44.062Z,16.80
2023-05-01T11:10:49.888Z,16.90
2023-05-01T11:12:55.471Z,16.80
2023-05-01T11:15:10.463Z,16.90
2023-05-01T11:17:18.078Z,16.90
2023-05-01T11:19:50.947Z,16.80
2023-05-01T11:21:56.450Z,16.90
2023-05-01T11:24:04.137Z,16.90
2023-05-01T11:26:09.151Z,16.90
2023-05-01T11:28:14.505Z,17.00
2023-05-01T11:30:23.495Z,16.90
2023-05-01T11:32:30.685Z,16.90
2023-05-01T11:34:41.733Z,16.90
2023-05-01T11:36:56.500Z,16.60
2023-05-01T11:39:02.390Z,16.70
2023-05-01T11:41:07.448Z,16.80
2023-05-01T11:43:12.814Z,16.80
2023-05-01T11:45:18.347Z,16.70
2023-05-01T11:47:26.888Z,16.70
2023-05-01T11:49:32.028Z,16.70
2023-05-01T11:51:38.633Z,16.70
2023-05-01T11:53:44.024Z,16.70
2023-05-01T11:55:50.061Z,16.80
2023-05-01T11:57:58.215Z,16.60
2023-05-01T12:00:05.848Z,16.70
2023-05-01T12:02:22.023Z,16.70
2023-05-01T12:04:32.519Z,16.40
2023-05-01T12:06:47.455Z,16.50
2023-05-01T12:08:53.648Z,16.40
2023-05-01T12:11:04.094Z,16.50
2023-05-01T12:13:10.495Z,16.40
2023-05-01T12:15:15.422Z,16.40
2023-05-01T12:17:23.437Z,16.60
2023-05-01T12:19:34.799Z,16.70
2023-05-01T12:21:46.864Z,16.60
2023-05-01T12:23:54.831Z,16.70
2023-05-01T12:26:00.049Z,16.70
2023-05-01T12:28:06.292Z,16.60
2023-05-01T12:30:12.700Z,16.60
2023-05-01T12:32:18.169Z,16.40
2023-05-01T12:34:35.203Z,16.50
2023-05-01T12:36:42.030Z,16.70
2023-05-01T12:39:05.786Z,16.70
2023-05-01T12:41:12.985Z,16.60
2023-05-01T12:43:20.667Z,16.60
2023-05-01T12:45:25.867Z,16.70
2023-05-01T12:47:39.707Z,16.70
2023-05-01T12:49:47.257Z,16.40
2023-05-01T12:51:55.067Z,16.30
2023-05-01T12:54:00.246Z,16.40
2023-05-01T12:56:07.017Z,16.60
2023-05-01T12:58:12.221Z,16.60
2023-05-01T13:00:18.451Z,16.50
2023-05-01T13:02:32.497Z,16.40
2023-05-01T13:04:37.728Z,16.20
2023-05-01T13:06:46.108Z,16.20
2023-05-01T13:08:52.615Z,16.20
2023-05-01T13:11:01.180Z,16.20
2023-05-01T13:13:07.121Z,16.10
2023-05-01T13:15:23.248Z,16.30
2023-05-01T13:17:31.161Z,16.30
2023-05-01T13:19:38.445Z,16.10
2023-05-01T13:21:53.148Z,16.10
2023-05-01T13:23:59.718Z,16.00
2023-05-01T13:26:04.965Z,16.20
2023-05-01T13:28:11.766Z,16.10
2023-05-01T13:30:22.776Z,16.10
2023-05-01T13:32:30.490Z,16.20
2023-05-01T13:34:40.027Z,16.20
2023-05-01T13:36:46.428Z,16.20
2023-05-01T13:38:57.608Z,16.20
2023-05-01T13:41:02.535Z,16.20
2023-05-01T13:43:07.580Z,16.30
2023-05-01T13:45:16.346Z,16.40
2023-05-01T13:47:23.418Z,16.50
2023-05-01T13:49:32.498Z,16.60
2023-05-01T13:51:44.408Z,16.60
2023-05-01T13:53:50.712Z,16.80
2023-05-01T13:55:58.261Z,16.80
2023-05-01T13:58:04.559Z,16.90
2023-05-01T14:00:11.586Z,17.00
2023-05-01T14:02:27.786Z,17.00
2023-05-01T14:04:32.825Z,17.20
2023-05-01T14:06:47.250Z,17.50
2023-05-01T14:08:54.530Z,17.70
2023-05-01T14:11:08.407Z,17.80
2023-05-01T14:13:14.486Z,17.80
2023-05-01T14:15:20.244Z,18.00
2023-05-01T14:17:32.606Z,18.30
2023-05-01T14:19:37.756Z,18.50
2023-05-01T14:21:45.822Z,18.70
2023-05-01T14:23:50.668Z,18.50
2023-05-01T14:25:57.499Z,18.50
2023-05-01T14:28:09.197Z,18.50
2023-05-01T14:30:23.805Z,18.70
2023-05-01T14:32:30.064Z,18.70
2023-05-01T14:34:35.215Z,18.60
2023-05-01T14:36:40.644Z,18.50
2023-05-01T14:38:49.721Z,18.30
2023-05-01T14:40:54.941Z,18.60
2023-05-01T14:43:01.701Z,18.90
2023-05-01T14:45:12.541Z,18.90
2023-05-01T14:47:22.673Z,18.80
2023-05-01T14:49:28.878Z,19.10
2023-05-01T14:51:36.021Z,18.70
2023-05-01T14:53:42.448Z,18.80
2023-05-01T14:55:47.819Z,19.30
2023-05-01T14:57:52.625Z,18.20
2023-05-01T14:59:58.802Z,18.30
2023-05-01T15:02:07.640Z,18.10
2023-05-01T15:04:13.361Z,18.10
2023-05-01T15:06:22.158Z,18.20
2023-05-01T15:08:30.503Z,18.60
2023-05-01T15:10:36.144Z,18.60
2023-05-01T15:12:44.299Z,18.80
2023-05-01T15:14:49.917Z,19.40
2023-05-01T15:16:56.666Z,19.70
2023-05-01T15:19:04.170Z,19.90
2023-05-01T15:21:09.362Z,19.90
2023-05-01T15:23:15.311Z,19.70
2023-05-01T15:25:23.190Z,19.30
2023-05-01T15:27:28.441Z,19.50
2023-05-01T15:29:35.767Z,19.60
2023-05-01T15:31:43.914Z,19.80
2023-05-01T15:33:48.824Z,20.00
2023-05-01T15:35:56.341Z,20.20
2023-05-01T15:38:01.421Z,20.20
2023-05-01T15:40:09.373Z,20.50
2023-05-01T15:42:15.694Z,20.80
2023-05-01T15:44:21.489Z,20.80
2023-05-01T15:46:27.355Z,20.60
2023-05-01T15:48:33.990Z,20.40
2023-05-01T15:50:39.874Z,20.10
2023-05-01T15:52:49.983Z,19.90
2023-05-01T15:54:56.512Z,20.20
2023-05-01T15:57:03.371Z,20.60
2023-05-01T15:59:09.656Z,19.80
2023-05-01T16:01:15.546Z,19.30
2023-05-01T16:03:20.503Z,18.90
2023-05-01T16:05:30.494Z,19.70
2023-05-01T16:07:36.402Z,20.20
2023-05-01T16:09:45.892Z,19.90
2023-05-01T16:11:56.419Z,20.00
2023-05-01T16:14:01.792Z,19.50
2023-05-01T16:16:08.848Z,19.30
2023-05-01T16:18:21.269Z,19.50
2023-05-01T16:20:26.509Z,19.10
2023-05-01T16:22:35.482Z,19.00
2023-05-01T16:24:43.440Z,18.70
2023-05-01T16:26:49.612Z,18.70
2023-05-01T16:28:54.957Z,18.90
2023-05-01T16:31:00.085Z,19.00
2023-05-01T16:33:14.405Z,18.70
2023-05-01T16:35:20.901Z,18.70
2023-05-01T16:37:26.966Z,18.50
2023-05-01T16:39:38.621Z,18.50
2023-05-01T16:41:48.711Z,17.80
2023-05-01T16:43:55.972Z,17.50
2023-05-01T16:46:02.599Z,17.70
2023-05-01T16:48:10.446Z,17.40
2023-05-01T16:50:16.546Z,17.30
2023-05-01T16:52:22.064Z,17.20
2023-05-01T16:54:32.263Z,17.10
2023-05-01T16:56:39.770Z,17.10
2023-05-01T16:58:50.105Z,17.10
2023-05-01T17:00:56.226Z,17.30
2023-05-01T17:03:05.334Z,17.00
2023-05-01T17:05:11.282Z,17.10
2023-05-01T17:07:16.397Z,16.80
2023-05-01T17:09:22.639Z,16.70
2023-05-01T17:11:39.301Z,16.90
2023-05-01T17:13:45.212Z,17.00
2023-05-01T17:15:53.487Z,16.90
2023-05-01T17:17:59.494Z,16.80
2023-05-01T17:20:06.885Z,16.50
2023-05-01T17:22:12.309Z,16.60
2023-05-01T17:24:18.730Z,16.80
2023-05-01T17:26:23.573Z,16.90
2023-05-01T17:28:29.117Z,16.80
2023-05-01T17:30:34.111Z,16.80
2023-05-01T17:34:47.318Z,16.70
2023-05-01T17:36:52.282Z,16.80
2023-05-01T17:39:00.536Z,16.80
2023-05-01T17:41:05.421Z,16.70
2023-05-01T17:43:10.763Z,16.70
2023-05-01T17:45:16.931Z,16.60
2023-05-01T17:47:24.484Z,16.40
2023-05-01T17:49:34.294Z,16.30
2023-05-01T17:51:42.650Z,16.40
2023-05-01T17:53:49.099Z,16.40
2023-05-01T17:55:53.977Z,16.50
2023-05-01T17:57:58.827Z,16.50
2023-05-01T18:00:06.974Z,16.50
2023-05-01T18:02:18.456Z,16.40
2023-05-01T18:04:25.853Z,16.20
2023-05-01T18:06:40.602Z,16.30
2023-05-01T18:08:50.329Z,16.30
2023-05-01T18:10:56.072Z,16.10
2023-05-01T18:13:01.899Z,15.90
2023-05-01T18:15:08.593Z,15.80
2023-05-01T18:17:13.892Z,15.50
2023-05-01T18:19:21.154Z,15.40
2023-05-01T18:21:28.736Z,15.30
2023-05-01T18:23:36.853Z,15.20
2023-05-01T18:25:42.101Z,15.00
2023-05-01T18:27:47.964Z,15.00
2023-05-01T18:29:52.971Z,15.10
2023-05-01T18:31:58.627Z,15.20
2023-05-01T18:34:05.634Z,15.20
2023-05-01T18:36:10.843Z,15.10
2023-05-01T18:38:18.453Z,15.30
2023-05-01T18:40:27.899Z,15.40
2023-05-01T18:42:33.543Z,15.10
2023-05-01T18:44:38.565Z,14.90
2023-05-01T18:46:44.634Z,15.00
2023-05-01T18:48:49.645Z,15.20
2023-05-01T18:51:07.231Z,15.30
2023-05-01T18:53:13.694Z,15.30
2023-05-01T18:55:19.256Z,15.20
2023-05-01T18:57:27.782Z,15.30
2023-05-01T18:59:33.995Z,15.10
2023-05-01T19:01:40.292Z,15.10
2023-05-01T19:03:45.537Z,15.00
2023-05-01T19:05:51.373Z,15.10
2023-05-01T19:08:01.897Z,15.00
2023-05-01T19:10:07.451Z,15.00
2023-05-01T19:12:12.281Z,15.00
2023-05-01T19:14:24.667Z,14.90
2023-05-01T19:16:30.021Z,14.90
2023-05-01T19:18:37.579Z,14.80
2023-05-01T19:20:42.475Z,14.80
2023-05-01T19:22:48.640Z,14.80
2023-05-01T19:24:54.336Z,14.90
2023-05-01T19:27:03.447Z,14.80
2023-05-01T19:29:11.349Z,14.90
2023-05-01T19:31:21.155Z,14.70
2023-05-01T19:33:26.143Z,14.70
2023-05-01T19:35:32.026Z,14.60
2023-05-01T19:37:40.077Z,14.70
2023-05-01T19:39:44.958Z,14.70
2023-05-01T19:41:56.597Z,14.70
2023-05-01T19:44:04.045Z,14.70
2023-05-01T19:46:09.861Z,14.70
2023-05-01T19:48:18.208Z,14.60
2023-05-01T19:50:24.131Z,14.70
2023-05-01T19:52:32.830Z,14.60
2023-05-01T19:54:38.260Z,14.60
2023-05-01T19:56:43.100Z,14.70
2023-05-01T19:58:49.913Z,14.60
2023-05-01T20:01:02.791Z,14.70
2023-05-01T20:03:08.217Z,14.60
2023-05-01T20:05:19.916Z,14.60
2023-05-01T20:07:25.001Z,14.60
2023-05-01T20:09:32.911Z,14.60
2023-05-01T20:11:39.038Z,14.50
2023-05-01T20:13:45.576Z,14.40
2023-05-01T20:15:52.147Z,14.30
2023-05-01T20:17:58.557Z,14.40
2023-05-01T20:20:05.376Z,14.40
2023-05-01T20:22:12.820Z,14.50
2023-05-01T20:24:18.712Z,14.50
2023-05-01T20:26:28.435Z,14.50
2023-05-01T20:28:33.680Z,14.50
2023-05-01T20:30:41.215Z,14.50
2023-05-01T20:32:50.265Z,14.50
2023-05-01T20:34:58.162Z,14.40
2023-05-01T20:37:07.077Z,14.30
2023-05-01T20:39:18.944Z,14.30
2023-05-01T20:41:24.032Z,13.70
2023-05-01T20:43:30.061Z,13.90
2023-05-01T20:45:35.220Z,13.50
2023-05-01T20:47:40.568Z,13.60
2023-05-01T20:49:46.020Z,13.80
2023-05-01T20:51:54.150Z,13.90
2023-05-01T20:53:58.984Z,14.00
2023-05-01T20:56:07.185Z,13.90
2023-05-01T20:58:17.929Z,13.90
2023-05-01T21:00:23.224Z,14.00
2023-05-01T21:02:30.351Z,14.00
2023-05-01T21:04:36.256Z,14.00
2023-05-01T21:06:43.923Z,14.00
2023-05-01T21:08:51.390Z,14.00
2023-05-01T21:10:56.648Z,13.90
2023-05-01T21:13:04.804Z,13.60
2023-05-01T21:15:11.201Z,13.00
2023-05-01T21:17:18.878Z,12.80
2023-05-01T21:19:24.968Z,12.50
2023-05-01T21:21:30.037Z,12.90
2023-05-01T21:23:35.753Z,13.20
2023-05-01T21:25:41.190Z,13.40
2023-05-01T21:27:50.091Z,13.50
2023-05-01T21:30:00.179Z,13.50
2023-05-01T21:32:09.057Z,13.20
2023-05-01T21:34:14.297Z,12.90
2023-05-01T21:36:21.160Z,13.00
2023-05-01T21:38:27.406Z,12.80
2023-05-01T21:40:32.269Z,12.70
2023-05-01T21:42:39.772Z,12.30
2023-05-01T21:44:45.667Z,12.20
2023-05-01T21:46:59.645Z,12.00
2023-05-01T21:49:05.216Z,11.90
2023-05-01T21:51:10.168Z,11.90
2023-05-01T21:53:15.689Z,12.00
2023-05-01T21:55:32.206Z,12.30
2023-05-01T21:57:38.159Z,12.30
2023-05-01T21:59:45.173Z,12.50
2023-05-01T22:01:57.736Z,12.70
2023-05-01T22:04:03.841Z,12.80
2023-05-01T22:06:10.732Z,13.00
2023-05-01T22:08:16.220Z,13.00
2023-05-01T22:10:22.347Z,13.10
2023-05-01T22:12:29.651Z,13.00
2023-05-01T22:14:46.798Z,13.00
2023-05-01T22:16:55.751Z,13.00
2023-05-01T22:19:00.904Z,13.00
2023-05-01T22:21:09.899Z,12.90
2023-05-01T22:23:15.979Z,13.00
2023-05-01T22:25:21.971Z,12.90
2023-05-01T22:27:27.014Z,12.80
2023-05-01T22:29:33.988Z,12.70
2023-05-01T22:31:39.580Z,12.40
2023-05-01T22:33:48.155Z,12.60
2023-05-01T22:35:52.988Z,12.50
2023-05-01T22:37:58.124Z,12.40
2023-05-01T22:40:03.569Z,12.50
2023-05-01T22:42:11.049Z,12.50
2023-05-01T22:44:22.515Z,12.70
2023-05-01T22:46:27.536Z,12.70
2023-05-01T22:48:33.758Z,12.70
2023-05-01T22:50:42.846Z,12.40
2023-05-01T22:52:48.404Z,12.10
2023-05-01T22:54:53.709Z,12.30
2023-05-01T22:56:59.918Z,12.10
2023-05-01T22:59:07.049Z,12.00
2023-05-01T23:01:12.277Z,12.10
2023-05-01T23:03:17.956Z,12.20
2023-05-01T23:05:28.142Z,12.30
2023-05-01T23:07:36.798Z,12.30
2023-05-01T23:09:43.249Z,12.40
2023-05-01T23:11:50.704Z,12.50
2023-05-01T23:13:56.141Z,12.50
2023-05-01T23:16:01.536Z,12.50
2023-05-01T23:18:09.481Z,12.50
2023-05-01T23:20:16.994Z,12.40
2023-05-01T23:22:23.255Z,12.50
2023-05-01T23:24:40.738Z,12.30
2023-05-01T23:26:46.197Z,12.40
2023-05-01T23:28:51.112Z,12.30
2023-05-01T23:30:58.592Z,12.30
2023-05-01T23:33:06.092Z,12.20
2023-05-01T23:35:14.603Z,12.30
2023-05-01T23:37:20.715Z,12.40
2023-05-01T23:39:29.397Z,12.40
2023-05-01T23:41:37.351Z,12.40
2023-05-01T23:43:44.565Z,12.40
2023-05-01T23:45:49.824Z,12.00
2023-05-01T23:47:54.764Z,11.70
2023-05-01T23:50:00.212Z,11.70
2023-05-01T23:52:05.396Z,11.80
2023-05-01T23:54:12.299Z,11.30
2023-05-01T23:56:17.128Z,11.50
2023-05-01T23:58:24.959Z,11.80
